Time;durP1;ratioP1;P1;durP2;ratioP2;P2;SDS_P1;SDS_P2;PMS_P1;PMS_P2;Temp;Humidity;BMP_temperature;BMP_pressure;BME280_temperature;BME280_humidity;BME280_pressure;Samples;Min_cycle;Max_cycle;Signal;HPM_P1;HPM_P2
2022/03/07 00:01:57;;;;;;;8.00;5.20;;;;;;;-1.28;67.29;102697.91;4988305;28;20018;-86
2022/03/07 00:04:23;;;;;;;9.20;5.50;;;;;;;-1.31;68.18;102692.66;4988516;28;20470;-86
2022/03/07 00:06:48;;;;;;;8.83;5.63;;;;;;;-1.32;67.75;102706.22;4988881;28;20029;-86
2022/03/07 00:09:14;;;;;;;8.33;5.43;;;;;;;-1.33;68.67;102702.78;4990604;28;20621;-86
2022/03/07 00:11:40;;;;;;;8.33;5.07;;;;;;;-1.34;69.03;102697.59;4988823;28;20034;-86
2022/03/07 00:14:06;;;;;;;8.43;4.97;;;;;;;-1.33;68.26;102701.91;4990868;28;20026;-86
2022/03/07 00:16:31;;;;;;;7.20;4.87;;;;;;;-1.34;68.72;102692.47;4991156;28;20029;-87
2022/03/07 00:18:57;;;;;;;8.20;4.93;;;;;;;-1.37;68.03;102693.22;4989156;28;20031;-86
2022/03/07 00:21:22;;;;;;;8.57;5.40;;;;;;;-1.40;68.44;102693.94;4990848;28;20045;-86
2022/03/07 00:23:48;;;;;;;8.90;5.10;;;;;;;-1.42;68.43;102700.63;4988262;28;20124;-87
2022/03/07 00:26:13;;;;;;;8.40;5.30;;;;;;;-1.45;68.13;102695.34;4990700;28;20030;-86
2022/03/07 00:28:38;;;;;;;8.97;5.40;;;;;;;-1.44;66.89;102699.66;4986485;28;20066;-87
2022/03/07 00:31:05;;;;;;;8.87;5.67;;;;;;;-1.47;66.92;102696.94;4989027;28;20038;-86
2022/03/07 00:33:30;;;;;;;9.23;5.77;;;;;;;-1.51;67.69;102699.25;4989740;28;20042;-86
2022/03/07 00:35:55;;;;;;;9.63;5.97;;;;;;;-1.57;68.56;102705.75;4986057;28;20026;-86
2022/03/07 00:38:21;;;;;;;7.83;5.30;;;;;;;-1.61;68.28;102702.97;4989250;28;20037;-86
2022/03/07 00:40:46;;;;;;;8.83;5.70;;;;;;;-1.66;68.22;102706.94;4990965;28;20062;-86
2022/03/07 00:43:12;;;;;;;8.80;5.50;;;;;;;-1.69;68.12;102711.06;4991291;28;20040;-86
2022/03/07 00:45:37;;;;;;;10.80;5.97;;;;;;;-1.74;68.21;102701.41;4988391;28;20034;-86
2022/03/07 00:48:03;;;;;;;10.63;5.43;;;;;;;-1.78;67.97;102705.47;4989876;28;20446;-86
2022/03/07 00:50:28;;;;;;;7.80;5.43;;;;;;;-1.80;68.77;102701.94;4987947;28;20450;-86
2022/03/07 00:52:54;;;;;;;9.90;5.53;;;;;;;-1.82;68.51;102698.44;4989709;28;20023;-86
2022/03/07 00:55:19;;;;;;;7.97;5.00;;;;;;;-1.84;69.11;102697.47;4989784;28;20085;-86
2022/03/07 00:57:44;;;;;;;9.87;5.67;;;;;;;-1.81;68.57;102701.88;4989337;28;20109;-86
2022/03/07 01:00:10;;;;;;;9.50;5.40;;;;;;;-1.83;68.83;102701.78;4989509;28;20489;-86
2022/03/07 01:02:35;;;;;;;8.60;5.40;;;;;;;-1.84;69.56;102705.13;4987511;28;20069;-86
2022/03/07 01:05:01;;;;;;;8.47;5.37;;;;;;;-1.85;70.14;102700.81;4989930;28;20080;-88
2022/03/07 01:07:27;;;;;;;10.13;5.50;;;;;;;-1.86;69.14;102709.25;4987675;28;20089;-86
2022/03/07 01:09:53;;;;;;;8.30;4.97;;;;;;;-1.86;69.08;102709.25;4990061;28;20028;-86
2022/03/07 01:12:18;;;;;;;9.20;5.33;;;;;;;-1.87;68.88;102710.06;4987911;28;20026;-85
2022/03/07 01:14:43;;;;;;;9.37;5.90;;;;;;;-1.90;68.73;102704.81;4986485;28;20077;-86
2022/03/07 01:17:09;;;;;;;9.67;5.97;;;;;;;-1.94;69.51;102708.84;4989183;28;20038;-86
2022/03/07 01:19:34;;;;;;;10.80;5.53;;;;;;;-1.95;69.83;102713.84;4990300;28;20472;-86
2022/03/07 01:21:59;;;;;;;7.60;5.27;;;;;;;-1.98;69.90;102715.44;4988717;28;20448;-86
2022/03/07 01:24:25;;;;;;;9.23;5.50;;;;;;;-1.99;70.21;102708.56;4987547;28;20034;-86
2022/03/07 01:26:50;;;;;;;9.77;5.60;;;;;;;-1.99;69.33;102710.25;4989804;28;20033;-86
2022/03/07 01:29:16;;;;;;;8.07;5.33;;;;;;;-2.02;69.96;102705.84;4989209;28;20034;-86
2022/03/07 01:31:41;;;;;;;10.40;5.20;;;;;;;-2.03;69.56;102709.19;4989856;28;20038;-86
2022/03/07 01:34:07;;;;;;;8.93;5.27;;;;;;;-2.04;69.46;102702.31;4989830;28;20508;-86
2022/03/07 01:36:32;;;;;;;11.17;5.80;;;;;;;-2.04;69.09;102702.31;4988896;28;20401;-86
2022/03/07 01:38:57;;;;;;;8.83;5.43;;;;;;;-2.03;68.93;102703.22;4988653;28;20030;-85
2022/03/07 01:41:22;;;;;;;9.47;6.10;;;;;;;-2.01;68.91;102699.09;4992584;28;20093;-85
2022/03/07 01:43:48;;;;;;;9.50;5.73;;;;;;;-2.01;69.11;102697.41;4988657;28;20034;-86
2022/03/07 01:46:13;;;;;;;12.87;5.80;;;;;;;-2.02;69.05;102700.75;4993731;28;20041;-86
2022/03/07 01:48:39;;;;;;;9.80;6.03;;;;;;;-2.05;69.29;102700.56;4988004;28;20031;-86
2022/03/07 01:51:07;;;;;;;10.03;5.30;;;;;;;-2.07;69.39;102702.19;4992076;28;20081;-86
2022/03/07 01:53:32;;;;;;;10.20;5.40;;;;;;;-2.11;70.35;102700.25;4993068;28;20038;-85
2022/03/07 01:55:57;;;;;;;11.53;5.90;;;;;;;-2.14;70.07;102700.97;4994944;28;20034;-86
2022/03/07 01:58:22;;;;;;;10.30;5.47;;;;;;;-2.16;70.36;102705.09;4992400;28;20105;-86
2022/03/07 02:00:48;;;;;;;12.40;5.63;;;;;;;-2.19;70.45;102698.91;4991615;28;20038;-85
2022/03/07 02:03:13;;;;;;;10.23;5.47;;;;;;;-2.23;70.66;102699.56;4991751;28;20277;-85
2022/03/07 02:05:40;;;;;;;9.37;5.10;;;;;;;-2.25;71.20;102701.13;4982893;28;20034;-86
2022/03/07 02:08:07;;;;;;;10.90;6.00;;;;;;;-2.27;70.74;102702.72;4990212;28;20034;-85
2022/03/07 02:10:33;;;;;;;11.17;5.57;;;;;;;-2.29;70.68;102702.59;4992097;28;20469;-85
2022/03/07 02:12:58;;;;;;;10.73;5.63;;;;;;;-2.31;70.85;102692.34;4991340;28;20034;-85
2022/03/07 02:15:23;;;;;;;9.77;5.83;;;;;;;-2.34;71.30;102693.84;4991760;28;20057;-85
2022/03/07 02:17:49;;;;;;;10.07;6.03;;;;;;;-2.31;69.67;102691.47;4992349;28;20136;-86
2022/03/07 02:20:15;;;;;;;8.53;5.53;;;;;;;-2.33;69.69;102683.72;4994579;28;20042;-86
2022/03/07 02:22:41;;;;;;;11.90;6.43;;;;;;;-2.33;69.60;102683.72;4992580;28;20141;-86
2022/03/07 02:25:07;;;;;;;12.57;6.67;;;;;;;-2.30;70.16;102677.91;4992713;28;20087;-84
2022/03/07 02:27:33;;;;;;;11.27;6.93;;;;;;;-2.30;70.02;102686.44;4990996;28;20530;-86
2022/03/07 02:29:59;;;;;;;12.27;6.53;;;;;;;-2.32;70.59;102682.94;4992527;28;20093;-86
2022/03/07 02:32:26;;;;;;;10.73;6.93;;;;;;;-2.31;70.14;102682.13;4991876;28;20053;-86
2022/03/07 02:34:52;;;;;;;11.13;6.83;;;;;;;-2.31;69.82;102686.38;4994604;28;20026;-86
2022/03/07 02:37:17;;;;;;;10.23;6.70;;;;;;;-2.32;70.37;102685.47;4981773;28;20034;-86
2022/03/07 02:39:42;;;;;;;12.37;6.80;;;;;;;-2.36;70.42;102678.44;4987656;28;20026;-85
2022/03/07 02:42:08;;;;;;;11.27;7.00;;;;;;;-2.36;70.45;102690.31;4991645;28;20126;-86
2022/03/07 02:44:33;;;;;;;11.53;6.80;;;;;;;-2.37;69.92;102686.00;4993210;28;20034;-85
2022/03/07 02:46:58;;;;;;;13.93;7.43;;;;;;;-2.38;70.40;102685.13;4992297;28;20038;-86
2022/03/07 02:49:24;;;;;;;14.07;6.80;;;;;;;-2.41;70.74;102690.06;4991506;28;20034;-86
2022/03/07 02:51:49;;;;;;;11.80;7.43;;;;;;;-2.41;70.47;102684.97;4983757;28;20085;-86
2022/03/07 02:54:14;;;;;;;14.40;7.07;;;;;;;-2.42;69.64;102688.31;4989906;28;20465;-86
2022/03/07 02:56:40;;;;;;;12.30;7.07;;;;;;;-2.46;70.99;102679.56;4991920;28;20485;-86
2022/03/07 02:59:05;;;;;;;10.93;6.57;;;;;;;-2.46;70.86;102688.91;4988252;28;20088;-85
2022/03/07 03:01:30;;;;;;;11.40;7.20;;;;;;;-2.50;70.77;102682.75;4989491;28;20030;-86
2022/03/07 03:03:55;;;;;;;10.97;6.50;;;;;;;-2.52;69.66;102680.91;4989794;28;20030;-86
2022/03/07 03:06:21;;;;;;;10.83;6.63;;;;;;;-2.57;70.65;102683.19;4991809;28;20034;-86
2022/03/07 03:08:46;;;;;;;12.63;6.40;;;;;;;-2.61;70.50;102679.59;4991302;28;20023;-86
2022/03/07 03:11:11;;;;;;;11.07;6.30;;;;;;;-2.64;70.68;102684.50;4989057;28;20128;-86
2022/03/07 03:13:37;;;;;;;11.23;6.30;;;;;;;-2.67;70.87;102681.78;4990614;28;20040;-86
2022/03/07 03:16:04;;;;;;;11.73;6.30;;;;;;;-2.65;70.81;102681.88;4990564;28;20026;-86
2022/03/07 03:18:30;;;;;;;10.30;5.90;;;;;;;-2.68;70.77;102685.09;5004000;28;20073;-86
2022/03/07 03:20:55;;;;;;;8.63;5.87;;;;;;;-2.72;70.82;102690.78;4992205;28;20026;-85
2022/03/07 03:23:22;;;;;;;11.20;6.50;;;;;;;-2.77;70.78;102685.44;4992220;28;20073;-85
2022/03/07 03:25:47;;;;;;;10.27;6.03;;;;;;;-2.78;71.40;102682.81;4989799;28;20076;-86
2022/03/07 03:28:13;;;;;;;10.17;6.37;;;;;;;-2.80;70.81;102682.69;4982557;28;20437;-86
2022/03/07 03:30:38;;;;;;;12.07;6.20;;;;;;;-2.80;70.38;102684.38;4989708;28;20069;-86
2022/03/07 03:33:04;;;;;;;10.60;6.00;;;;;;;-2.82;70.54;102683.41;4988917;28;20056;-86
2022/03/07 03:35:29;;;;;;;10.60;6.40;;;;;;;-2.82;70.60;102691.06;4988082;28;20473;-85
2022/03/07 03:37:55;;;;;;;9.97;6.00;;;;;;;-2.85;70.42;102694.31;4992042;28;20117;-86
2022/03/07 03:40:20;;;;;;;10.53;6.53;;;;;;;-2.92;70.71;102689.63;4988220;28;20038;-86
2022/03/07 03:42:46;;;;;;;9.73;6.37;;;;;;;-2.95;70.94;102687.78;4990933;28;20037;-86
2022/03/07 03:45:13;;;;;;;10.87;6.77;;;;;;;-2.95;71.13;102690.34;4989722;28;20034;-86
2022/03/07 03:47:40;;;;;;;11.33;6.23;;;;;;;-2.95;71.36;102692.88;4989940;28;20478;-85
2022/03/07 03:50:08;;;;;;;12.20;6.50;;;;;;;-2.98;71.86;102692.69;4988516;28;20572;-86
2022/03/07 03:52:34;;;;;;;10.33;5.67;;;;;;;-2.95;71.09;102689.44;4990711;28;20101;-85
2022/03/07 03:55:01;;;;;;;11.07;5.77;;;;;;;-2.97;71.03;102691.91;4988831;28;20134;-86
2022/03/07 03:57:26;;;;;;;9.60;6.27;;;;;;;-3.00;71.69;102688.31;4985167;28;20080;-86
2022/03/07 03:59:52;;;;;;;10.63;6.30;;;;;;;-3.01;72.24;102689.97;4988395;28;20034;-86
2022/03/07 04:02:17;;;;;;;10.80;6.17;;;;;;;-2.99;72.05;102692.63;4988956;28;20030;-86
2022/03/07 04:04:42;;;;;;;10.57;6.27;;;;;;;-2.98;72.44;102694.34;4986660;28;20034;-86
2022/03/07 04:07:08;;;;;;;9.17;6.10;;;;;;;-2.99;72.06;102696.03;4987959;28;20030;-86
2022/03/07 04:09:33;;;;;;;9.90;6.37;;;;;;;-3.02;72.18;102693.28;4989707;28;20485;-85
2022/03/07 04:11:59;;;;;;;11.60;6.70;;;;;;;-3.02;72.21;102692.41;4988314;28;20533;-85
2022/03/07 04:14:24;;;;;;;9.67;5.90;;;;;;;-3.02;72.05;102693.28;4987900;28;20038;-85
2022/03/07 04:16:50;;;;;;;13.53;6.50;;;;;;;-3.02;71.65;102692.41;4987001;28;20044;-86
2022/03/07 04:19:16;;;;;;;9.80;6.30;;;;;;;-3.02;72.17;102690.75;4989544;28;20381;-86
2022/03/07 04:21:42;;;;;;;12.60;6.20;;;;;;;-3.02;72.24;102690.75;4988827;28;20037;-86
2022/03/07 04:24:09;;;;;;;9.07;5.47;;;;;;;-3.05;71.91;102688.91;4989578;28;20186;-85
2022/03/07 04:26:35;;;;;;;9.60;6.40;;;;;;;-3.05;72.25;102688.00;4989008;28;20101;-86
2022/03/07 04:29:01;;;;;;;11.60;6.37;;;;;;;-3.06;72.61;102689.69;4990541;28;20044;-86
2022/03/07 04:31:26;;;;;;;10.07;6.20;;;;;;;-3.06;72.27;102689.69;4988937;28;20030;-85
2022/03/07 04:33:52;;;;;;;10.37;6.27;;;;;;;-3.05;72.33;102695.66;4988661;28;20137;-86
2022/03/07 04:36:19;;;;;;;11.33;6.30;;;;;;;-3.04;73.24;102697.41;4987309;28;20038;-86
2022/03/07 04:38:44;;;;;;;10.60;6.40;;;;;;;-3.04;72.83;102699.94;4983691;28;20030;-86
2022/03/07 04:41:10;;;;;;;10.20;6.03;;;;;;;-3.05;73.54;102698.19;4990277;28;20049;-86
2022/03/07 04:43:35;;;;;;;11.07;6.43;;;;;;;-3.06;72.88;102683.69;4990436;28;20036;-85
2022/03/07 04:46:00;;;;;;;10.40;5.97;;;;;;;-3.06;73.13;102693.88;4988627;28;20084;-86
2022/03/07 04:48:25;;;;;;;11.90;6.73;;;;;;;-3.07;73.14;102689.56;4976121;28;20038;-86
2022/03/07 04:50:51;;;;;;;10.10;6.40;;;;;;;-3.09;73.26;102686.94;4976396;28;20030;-86
2022/03/07 04:53:17;;;;;;;12.30;6.50;;;;;;;-3.09;73.90;102688.63;4990847;28;20022;-86
2022/03/07 04:55:42;;;;;;;10.70;6.23;;;;;;;-3.09;73.39;102692.03;4989309;28;20765;-86
2022/03/07 04:58:07;;;;;;;11.80;6.60;;;;;;;-3.08;73.37;102690.38;4984407;28;20537;-86
2022/03/07 05:00:33;;;;;;;10.37;6.30;;;;;;;-3.10;73.39;102697.91;4990151;28;20495;-86
2022/03/07 05:02:58;;;;;;;11.03;6.90;;;;;;;-3.11;73.35;102693.63;4989408;28;20034;-86
2022/03/07 05:05:23;;;;;;;11.93;6.80;;;;;;;-3.10;74.12;102690.28;4989715;28;20462;-85
2022/03/07 05:07:49;;;;;;;9.03;6.23;;;;;;;-3.11;72.94;102692.75;4989655;28;20132;-85
2022/03/07 05:10:17;;;;;;;11.03;6.60;;;;;;;-3.14;73.63;102682.38;4993617;28;20088;-86
2022/03/07 05:12:43;;;;;;;10.70;6.03;;;;;;;-3.16;73.36;102683.94;4993898;28;20362;-86
2022/03/07 05:15:08;;;;;;;12.63;7.20;;;;;;;-3.15;73.20;102686.56;4992578;28;20327;-85
2022/03/07 05:17:46;;;;;;;12.67;7.30;;;;;;;-3.13;73.39;102684.13;4992616;28;20061;-85
2022/03/07 05:20:12;;;;;;;11.07;6.47;;;;;;;-3.13;73.58;102684.13;4994573;28;20030;-86
2022/03/07 05:22:39;;;;;;;11.23;6.27;;;;;;;-3.15;72.79;102684.03;4985290;28;20055;-86
2022/03/07 05:25:05;;;;;;;10.60;6.43;;;;;;;-3.15;72.81;102695.88;4991315;28;20026;-85
2022/03/07 05:27:30;;;;;;;12.70;7.03;;;;;;;-3.14;72.84;102687.47;4992466;28;20511;-85
2022/03/07 05:29:56;;;;;;;11.30;6.70;;;;;;;-3.17;73.08;102682.19;4988743;28;20035;-85
2022/03/07 05:32:21;;;;;;;14.40;7.33;;;;;;;-3.16;72.98;102683.94;4992172;28;20061;-85
2022/03/07 05:34:46;;;;;;;15.93;7.50;;;;;;;-3.16;72.45;102689.91;4957515;28;20030;-86
2022/03/07 05:37:11;;;;;;;12.83;7.00;;;;;;;-3.15;73.00;102688.25;4971578;28;20035;-86
2022/03/07 05:39:37;;;;;;;11.43;7.13;;;;;;;-3.18;73.70;102688.06;4975923;28;20110;-85
2022/03/07 05:42:03;;;;;;;14.20;7.40;;;;;;;-3.21;73.84;102684.53;4974565;28;20037;-86
2022/03/07 05:44:28;;;;;;;11.77;7.23;;;;;;;-3.20;73.32;102688.84;4975783;28;20114;-86
2022/03/07 05:46:54;;;;;;;12.63;6.90;;;;;;;-3.21;73.39;102684.53;4974569;28;20114;-85
2022/03/07 05:49:19;;;;;;;11.77;7.10;;;;;;;-3.23;73.52;102683.56;4983213;28;20483;-85
2022/03/07 05:51:46;;;;;;;12.23;7.10;;;;;;;-3.23;72.82;102682.69;4971573;28;20035;-85
2022/03/07 05:54:11;;;;;;;10.80;6.30;;;;;;;-3.25;72.79;102689.34;4972424;28;20473;-85
2022/03/07 05:56:36;;;;;;;12.43;7.23;;;;;;;-3.26;72.94;102693.59;4972852;28;20084;-85
2022/03/07 05:59:02;;;;;;;11.63;6.70;;;;;;;-3.29;73.10;102693.38;4954711;28;20026;-85
2022/03/07 06:01:27;;;;;;;13.70;7.23;;;;;;;-3.27;73.77;102696.91;4972714;28;20064;-85
2022/03/07 06:03:52;;;;;;;13.60;6.80;;;;;;;-3.26;73.11;102691.03;4969922;28;20026;-85
2022/03/07 06:06:17;;;;;;;12.30;7.10;;;;;;;-3.26;72.58;102703.75;4974753;28;20035;-85
2022/03/07 06:08:43;;;;;;;13.53;7.53;;;;;;;-3.25;72.48;102708.06;4978725;28;20022;-85
2022/03/07 06:11:08;;;;;;;13.60;7.27;;;;;;;-3.27;73.25;102716.38;4971478;28;20039;-85
2022/03/07 06:13:34;;;;;;;15.77;7.33;;;;;;;-3.24;72.87;102721.66;4973073;28;20101;-85
2022/03/07 06:15:59;;;;;;;15.40;7.80;;;;;;;-3.24;72.65;102724.19;4970374;28;20076;-85
2022/03/07 06:18:25;;;;;;;14.23;8.17;;;;;;;-3.24;72.65;102722.53;4970825;28;20101;-85
2022/03/07 06:20:50;;;;;;;12.90;7.60;;;;;;;-3.26;73.17;102724.13;4970025;28;20489;-84
2022/03/07 06:23:16;;;;;;;15.47;7.87;;;;;;;-3.26;72.83;102729.22;4970004;28;20026;-85
2022/03/07 06:25:41;;;;;;;16.17;9.10;;;;;;;-3.26;73.06;102733.41;4972312;28;20022;-85
2022/03/07 06:28:07;;;;;;;13.27;8.10;;;;;;;-3.28;73.38;102728.22;4968795;28;20117;-85
2022/03/07 06:30:32;;;;;;;16.97;8.60;;;;;;;-3.30;74.25;102732.34;4971523;28;20490;-85
2022/03/07 06:32:57;;;;;;;14.33;7.43;;;;;;;-3.30;73.32;102734.91;4978557;28;20054;-85
2022/03/07 06:35:22;;;;;;;13.40;8.03;;;;;;;-3.31;73.49;102734.78;4991575;28;20062;-84
2022/03/07 06:37:52;;;;;;;13.43;7.87;;;;;;;-3.29;73.63;102733.22;4991464;28;20027;-85
2022/03/07 06:40:19;;;;;;;11.97;7.60;;;;;;;-3.25;73.84;102741.16;4991183;28;20053;-85
2022/03/07 06:42:49;;;;;;;13.87;8.60;;;;;;;-3.22;73.19;102741.31;4990887;28;20081;-85
2022/03/07 06:45:16;;;;;;;15.03;7.60;;;;;;;-3.20;73.74;102739.75;4991759;28;20109;-85
2022/03/07 06:47:43;;;;;;;15.23;8.60;;;;;;;-3.15;73.89;102736.63;4991082;28;20037;-85
2022/03/07 06:50:09;;;;;;;18.10;9.03;;;;;;;-3.16;73.57;102742.50;4992169;28;20030;-85
2022/03/07 06:52:34;;;;;;;14.30;8.63;;;;;;;-3.15;74.26;102751.91;4992063;28;20486;-85
2022/03/07 06:55:00;;;;;;;15.23;8.67;;;;;;;-3.13;74.04;102740.16;4992825;28;20037;-84
2022/03/07 06:57:25;;;;;;;16.83;8.03;;;;;;;-3.11;73.89;102739.44;4992438;28;20424;-85
2022/03/07 06:59:51;;;;;;;12.57;7.60;;;;;;;-3.06;74.02;102742.25;4992694;28;20397;-85
2022/03/07 07:02:17;;;;;;;14.63;8.17;;;;;;;-3.04;74.16;102738.16;4991844;28;20037;-85
2022/03/07 07:04:43;;;;;;;12.87;8.00;;;;;;;-2.99;74.28;102744.41;4987814;28;20120;-84
2022/03/07 07:07:08;;;;;;;12.83;8.50;;;;;;;-2.95;74.69;102735.28;4992354;28;20105;-85
2022/03/07 07:09:34;;;;;;;14.80;8.30;;;;;;;-2.91;74.62;102745.78;4991382;28;20109;-85
2022/03/07 07:11:59;;;;;;;16.97;8.53;;;;;;;-2.87;74.22;102734.09;4992008;28;20026;-84
2022/03/07 07:14:24;;;;;;;14.63;7.80;;;;;;;-2.83;74.47;102735.16;4991266;28;20028;-85
2022/03/07 07:16:50;;;;;;;17.13;8.60;;;;;;;-2.79;74.93;102734.53;4985207;28;20022;-85
2022/03/07 07:19:15;;;;;;;14.97;8.30;;;;;;;-2.73;74.91;102737.44;4992200;28;20077;-85
2022/03/07 07:21:40;;;;;;;13.40;7.90;;;;;;;-2.69;74.60;102738.53;4992037;28;20028;-85
2022/03/07 07:24:06;;;;;;;15.87;8.43;;;;;;;-2.64;74.71;102732.91;4992360;28;20113;-85
2022/03/07 07:26:32;;;;;;;14.60;7.90;;;;;;;-2.60;74.38;102734.84;4986853;28;20100;-85
2022/03/07 07:28:57;;;;;;;14.83;9.13;;;;;;;-2.56;74.51;102733.38;4988622;28;20474;-84
2022/03/07 07:31:22;;;;;;;14.17;8.13;;;;;;;-2.51;73.87;102737.06;4990826;28;20436;-84
2022/03/07 07:33:48;;;;;;;15.43;8.70;;;;;;;-2.48;74.80;102738.91;4984561;28;20050;-85
2022/03/07 07:36:13;;;;;;;15.83;9.33;;;;;;;-2.42;74.49;102739.28;4970859;28;20038;-85
2022/03/07 07:38:38;;;;;;;17.70;9.83;;;;;;;-2.38;74.60;102731.00;4969375;28;20026;-85
2022/03/07 07:41:03;;;;;;;20.30;10.33;;;;;;;-2.32;74.29;102741.56;4955144;28;20022;-84
2022/03/07 07:43:29;;;;;;;17.33;9.37;;;;;;;-2.27;74.40;102739.28;4953451;28;20026;-85
2022/03/07 07:45:54;;;;;;;16.97;9.33;;;;;;;-2.19;75.04;102747.34;4971440;28;20437;-85
2022/03/07 07:48:19;;;;;;;20.37;9.73;;;;;;;-2.14;74.10;102751.06;4975274;28;20030;-85
2022/03/07 07:50:45;;;;;;;16.03;9.20;;;;;;;-2.09;75.11;102744.56;4969914;28;20464;-84
2022/03/07 07:53:10;;;;;;;15.60;9.30;;;;;;;-2.00;74.41;102749.31;4951948;28;20378;-85
2022/03/07 07:55:35;;;;;;;19.57;9.50;;;;;;;-1.95;74.46;102752.13;4971554;28;20504;-85
2022/03/07 07:58:01;;;;;;;16.53;9.03;;;;;;;-1.89;74.75;102747.38;4973202;28;20029;-85
2022/03/07 08:00:27;;;;;;;16.23;9.97;;;;;;;-1.83;74.87;102742.59;4971706;28;20030;-84
2022/03/07 08:02:52;;;;;;;18.23;9.80;;;;;;;-1.76;74.65;102744.72;4972324;28;20382;-85
2022/03/07 08:05:18;;;;;;;16.23;10.13;;;;;;;-1.70;75.00;102750.13;4972082;28;20482;-85
2022/03/07 08:07:44;;;;;;;16.07;8.90;;;;;;;-1.63;75.21;102753.94;4970914;28;20027;-85
2022/03/07 08:10:15;;;;;;;14.83;9.00;;;;;;;-1.56;75.30;102752.59;4953924;28;20463;-85
2022/03/07 08:12:40;;;;;;;15.40;9.43;;;;;;;-1.51;74.72;102748.59;4970202;28;20022;-85
2022/03/07 08:15:11;;;;;;;14.63;8.97;;;;;;;-1.42;74.29;102758.44;4975072;28;20034;-85
2022/03/07 08:17:46;;;;;;;16.50;9.80;;;;;;;-1.31;74.10;102753.94;4979907;28;20054;-85
2022/03/07 08:20:13;;;;;;;16.40;10.30;;;;;;;-1.23;74.45;102752.69;4955598;28;20471;-85
2022/03/07 08:22:39;;;;;;;16.57;9.83;;;;;;;-1.15;73.50;102756.50;4971749;28;20088;-85
2022/03/07 08:25:05;;;;;;;16.43;9.90;;;;;;;-1.08;73.74;102755.16;4970350;28;20034;-85
2022/03/07 08:27:30;;;;;;;14.50;8.90;;;;;;;-0.99;74.11;102747.09;4969937;28;20029;-85
2022/03/07 08:29:56;;;;;;;14.63;9.30;;;;;;;-0.91;73.10;102750.97;4972813;28;20070;-85
2022/03/07 08:32:21;;;;;;;17.30;9.33;;;;;;;-0.85;73.08;102751.25;4974247;28;20046;-86
2022/03/07 08:34:46;;;;;;;16.20;9.20;;;;;;;-0.79;72.79;102749.03;4987729;28;20100;-85
2022/03/07 08:37:11;;;;;;;15.13;9.23;;;;;;;-0.72;73.04;102752.78;4986738;28;20035;-85
2022/03/07 08:39:37;;;;;;;15.73;9.57;;;;;;;-0.63;72.68;102752.38;4988799;28;20040;-85
2022/03/07 08:42:02;;;;;;;14.20;9.00;;;;;;;-0.55;71.07;102751.13;4987641;28;20031;-85
2022/03/07 08:44:27;;;;;;;13.30;8.60;;;;;;;-0.49;71.16;102751.41;4986118;28;20547;-86
2022/03/07 08:46:53;;;;;;;13.97;9.00;;;;;;;-0.42;70.47;102746.63;4974544;28;20045;-85
2022/03/07 08:49:18;;;;;;;17.40;9.67;;;;;;;-0.35;71.61;102746.13;4987690;28;20027;-86
2022/03/07 08:51:46;;;;;;;15.97;8.83;;;;;;;-0.28;70.03;102749.88;4986038;28;20537;-85
2022/03/07 08:54:11;;;;;;;17.37;9.00;;;;;;;-0.23;70.40;102749.28;4979098;28;20081;-85
2022/03/07 08:56:36;;;;;;;13.77;7.80;;;;;;;-0.16;69.19;102751.34;4985325;28;20030;-85
2022/03/07 08:59:02;;;;;;;13.43;8.23;;;;;;;-0.09;69.42;102756.78;4986931;28;20406;-85
2022/03/07 09:01:28;;;;;;;12.03;8.17;;;;;;;-0.01;67.77;102752.91;4987742;28;20033;-85
2022/03/07 09:03:53;;;;;;;14.03;8.33;;;;;;;0.06;68.91;102749.84;4987959;28;20034;-85
2022/03/07 09:06:19;;;;;;;11.43;7.40;;;;;;;0.12;68.74;102742.47;4987749;28;20030;-85
2022/03/07 09:08:44;;;;;;;11.30;7.50;;;;;;;0.18;68.24;102736.75;4987448;28;20481;-85
2022/03/07 09:11:09;;;;;;;12.30;6.97;;;;;;;0.24;67.83;102737.06;4989964;28;20088;-85
2022/03/07 09:13:34;;;;;;;10.70;6.97;;;;;;;0.29;66.09;102730.47;4989606;28;20045;-85
2022/03/07 09:16:00;;;;;;;13.40;6.93;;;;;;;0.36;66.36;102739.31;4988971;28;20029;-85
2022/03/07 09:18:26;;;;;;;10.07;6.60;;;;;;;0.42;65.36;102737.03;4988367;28;20071;-85
2022/03/07 09:20:51;;;;;;;9.53;6.63;;;;;;;0.47;65.22;102739.81;4987776;28;20022;-85
2022/03/07 09:23:17;;;;;;;9.93;6.87;;;;;;;0.51;64.94;102736.59;4986570;28;20030;-85
2022/03/07 09:25:42;;;;;;;10.93;6.57;;;;;;;0.57;65.61;102730.88;4985588;28;20089;-86
2022/03/07 09:28:08;;;;;;;10.87;7.00;;;;;;;0.63;65.96;102731.16;4985245;28;20029;-85
2022/03/07 09:30:33;;;;;;;10.57;6.60;;;;;;;0.69;65.55;102726.31;4984784;28;20140;-86
2022/03/07 09:33:03;;;;;;;10.37;6.07;;;;;;;0.74;64.14;102724.84;4984517;28;20086;-85
2022/03/07 09:35:29;;;;;;;9.63;5.97;;;;;;;0.82;64.62;102717.50;4986737;28;20018;-85
2022/03/07 09:37:54;;;;;;;7.93;5.70;;;;;;;0.90;63.66;102726.44;4986260;28;20026;-85
2022/03/07 09:40:19;;;;;;;8.73;5.90;;;;;;;0.97;61.94;102722.44;4987277;28;20165;-85
2022/03/07 09:42:46;;;;;;;10.47;5.87;;;;;;;1.03;62.53;102720.13;4985240;28;20502;-85
2022/03/07 09:45:13;;;;;;;8.37;5.83;;;;;;;1.08;62.64;102720.38;4985434;28;20381;-85
2022/03/07 09:47:39;;;;;;;8.10;5.37;;;;;;;1.12;61.99;102721.38;4987888;28;20460;-84
2022/03/07 09:50:05;;;;;;;8.20;5.80;;;;;;;1.17;62.29;102715.63;4990760;28;20030;-86
2022/03/07 09:52:31;;;;;;;8.10;5.63;;;;;;;1.26;61.11;102714.28;4987161;28;20122;-85
2022/03/07 09:54:58;;;;;;;11.10;5.43;;;;;;;1.33;61.50;102714.63;4989198;28;20066;-86
2022/03/07 09:57:24;;;;;;;11.33;5.33;;;;;;;1.42;60.67;102710.66;4983372;28;20100;-86
2022/03/07 09:59:49;;;;;;;9.27;5.93;;;;;;;1.46;61.85;102721.13;4987646;28;20461;-85
2022/03/07 10:02:19;;;;;;;7.60;5.43;;;;;;;1.49;60.74;102705.88;4980059;28;20025;-86
2022/03/07 10:04:46;;;;;;;9.00;5.40;;;;;;;1.54;60.92;102700.91;4985957;28;20022;-86
2022/03/07 10:07:12;;;;;;;7.67;5.30;;;;;;;1.59;61.01;102706.25;4985309;28;20217;-86
2022/03/07 10:09:38;;;;;;;8.43;5.77;;;;;;;1.64;60.38;102708.22;4987790;28;20390;-86
2022/03/07 10:12:04;;;;;;;8.97;5.77;;;;;;;1.69;60.95;102704.97;4990636;28;20482;-86
2022/03/07 10:14:47;;;;;;;7.33;4.90;;;;;;;1.73;60.76;102704.25;4987720;28;20045;-86
2022/03/07 10:17:16;;;;;;;8.90;5.40;;;;;;;1.78;60.86;102698.53;4984217;28;20022;-85
2022/03/07 10:19:46;;;;;;;7.77;5.13;;;;;;;1.85;60.12;102698.75;4980157;28;20030;-86
2022/03/07 10:22:19;;;;;;;8.53;5.50;;;;;;;1.92;60.23;102706.75;4986145;28;20389;-86
2022/03/07 10:24:45;;;;;;;7.17;4.57;;;;;;;1.99;59.14;102699.31;4986222;28;20057;-86
2022/03/07 10:27:23;;;;;;;7.50;4.90;;;;;;;2.03;58.85;102696.06;4983430;28;20507;-86
2022/03/07 10:29:48;;;;;;;7.93;5.13;;;;;;;2.09;59.48;102696.28;4983794;28;20026;-86
2022/03/07 10:32:17;;;;;;;7.23;4.83;;;;;;;2.14;59.21;102689.66;4985453;28;20050;-86
2022/03/07 10:34:43;;;;;;;6.33;4.00;;;;;;;2.20;59.39;102679.63;4975857;28;20037;-85
2022/03/07 10:37:09;;;;;;;6.67;4.47;;;;;;;2.25;57.31;102672.09;4964697;28;20023;-85
2022/03/07 10:39:34;;;;;;;6.70;4.30;;;;;;;2.30;57.47;102674.81;4964228;28;20470;-86
2022/03/07 10:41:59;;;;;;;7.27;4.73;;;;;;;2.33;57.01;102674.94;4968751;28;20034;-85
2022/03/07 10:44:37;;;;;;;7.67;4.40;;;;;;;2.37;57.79;102681.97;4952739;28;20138;-86
2022/03/07 10:47:08;;;;;;;8.47;5.17;;;;;;;2.37;57.83;102664.84;4971229;28;20027;-86
2022/03/07 10:49:33;;;;;;;8.33;4.90;;;;;;;2.40;56.99;102664.97;4970929;28;20077;-85
2022/03/07 10:52:03;;;;;;;7.10;4.80;;;;;;;2.43;57.10;102661.63;4967050;28;20449;-86
2022/03/07 10:54:28;;;;;;;12.30;5.13;;;;;;;2.47;57.39;102658.34;4968954;28;20027;-86
2022/03/07 10:56:55;;;;;;;6.87;4.30;;;;;;;2.52;57.48;102656.84;4968711;28;20033;-85
2022/03/07 10:59:28;;;;;;;7.80;4.13;;;;;;;2.57;57.01;102650.16;4969413;28;20398;-85
2022/03/07 11:02:06;;;;;;;7.87;4.50;;;;;;;2.63;57.41;102643.50;4968397;28;20026;-86
2022/03/07 11:04:33;;;;;;;6.20;4.40;;;;;;;2.65;56.66;102649.56;4969222;28;20421;-85
2022/03/07 11:06:59;;;;;;;7.07;4.60;;;;;;;2.65;55.96;102635.03;4970108;28;20049;-86
2022/03/07 11:09:24;;;;;;;6.43;4.33;;;;;;;2.71;57.22;102642.09;4967698;28;20371;-86
2022/03/07 11:11:51;;;;;;;7.37;4.70;;;;;;;2.75;55.92;102636.22;4970452;28;20023;-86
2022/03/07 11:14:17;;;;;;;8.63;4.73;;;;;;;2.78;57.35;102627.78;4972555;28;20035;-86
2022/03/07 11:16:45;;;;;;;9.23;5.80;;;;;;;2.83;56.23;102628.78;4968467;28;20034;-86